LZPP

Piešťany Airport

Piešťany, Slovakia (Slovak Republic)
TAF LZPP 181100Z 1812/1821 36010KT 9999 FEW045 SCT080 TEMPO 1812/1815 03015G25KT BKN040
Issued Valid From Valid To
Jun-18 @ 11:00 UTC
(2 hours ago)
Jun-18 @ 12:00 UTC
(an hour ago)
Jun-18 @ 21:00 UTC
(in 8 hours)
Jun-18 @ 12:00 to Jun-18 @ 21:00
TAF LZPP 181100Z 1812/1821 36010KT 9999 FEW045 SCT080
Wind Visibility Clouds
360° at 10 knots 10,000+ meters
  • Few at 4,500' AGL
  • Scattered at 8,000' AGL
Temporary Jun-18 @ 12:00 to Jun-18 @ 15:00
TEMPO 1812/1815 03015G25KT BKN040
Wind Clouds
30° at 15 knots
 Gusting to 25 knots
  • Broken at 4,000' AGL
TAF LZPP 181100Z 1812/1821 36010KT 9999 FEW045 SCT080 TEMPO 1812/1815 03015G25KT BKN040
Issued Jun-18 @ 11:00 UTC
(2 hours ago)
Valid From Jun-18 @ 12:00 UTC
(an hour ago)
Valid To Jun-18 @ 21:00 UTC
(in 8 hours)
Jun-18 @ 12:00 - Jun-18 @ 21:00
Wind Visibility
360° at 10 knots 10,000+ meters
Clouds
  • Few at 4,500' AGL
  • Scattered at 8,000' AGL
Temporary Jun-18 @ 12:00 - Jun-18 @ 15:00
Wind
30° at 15 knots
 Gusting to 25 knots
Clouds
  • Broken at 4,000' AGL